Time;durP1;ratioP1;P1;durP2;ratioP2;P2;SDS_P1;SDS_P2;PMS_P1;PMS_P2;Temp;Humidity;BMP_temperature;BMP_pressure;BME280_temperature;BME280_humidity;BME280_pressure;Samples;Min_cycle;Max_cycle;Signal;HPM_P1;HPM_P2
2023/05/06 01:03:06;;;;;;;38.70;26.80;;;10.60;99.90;;;;;;5020866;23;20568;-81
2023/05/06 01:05:52;;;;;;;42.20;29.08;;;10.60;99.90;;;;;;4917261;29;37523;-80
2023/05/06 01:08:28;;;;;;;33.38;25.45;;;10.70;99.90;;;;;;4901699;29;37742;-80
2023/05/06 01:11:13;;;;;;;36.47;26.02;;;10.70;99.90;;;;;;4916583;29;38213;-81
2023/05/06 01:13:47;;;;;;;37.05;25.08;;;10.60;99.90;;;;;;4916684;29;48584;-81
2023/05/06 01:16:16;;;;;;;38.00;26.92;;;10.60;99.90;;;;;;4898946;29;37576;-80
2023/05/06 01:18:44;;;;;;;35.30;26.83;;;10.50;99.90;;;;;;4889654;29;37054;-80
2023/05/06 01:21:12;;;;;;;40.50;28.70;;;10.40;99.90;;;;;;4908868;29;36444;-80
2023/05/06 01:23:56;;;;;;;38.38;26.42;;;10.50;99.90;;;;;;4905979;29;37745;-81
2023/05/06 01:26:23;;;;;;;37.03;27.75;;;10.40;99.90;;;;;;4916772;29;38255;-80
2023/05/06 01:28:53;;;;;;;38.40;27.00;;;10.40;99.90;;;;;;4913159;29;37201;-80
2023/05/06 01:31:37;;;;;;;39.07;28.53;;;10.30;99.90;;;;;;4903706;29;37167;-79
2023/05/06 01:34:34;;;;;;;33.00;26.27;;;10.30;99.90;;;;;;4914847;29;38284;-81
2023/05/06 01:37:11;;;;;;;37.47;26.87;;;10.30;99.90;;;;;;4909427;29;37284;-80
2023/05/06 01:39:40;;;;;;;38.17;27.50;;;10.30;99.90;;;;;;4915762;29;48572;-78
2023/05/06 01:42:09;;;;;;;41.08;27.75;;;10.30;99.90;;;;;;4898739;29;36417;-77
2023/05/06 01:44:37;;;;;;;40.20;29.10;;;10.30;99.90;;;;;;4897103;29;37741;-77
2023/05/06 01:47:04;;;;;;;41.33;28.20;;;10.20;99.90;;;;;;4908161;29;37411;-78
2023/05/06 01:49:31;;;;;;;37.13;28.20;;;10.20;99.90;;;;;;4918385;29;36938;-78
2023/05/06 01:51:57;;;;;;;40.10;26.45;;;10.30;99.90;;;;;;4911270;29;37375;-79
2023/05/06 01:54:23;;;;;;;42.37;28.67;;;10.30;99.90;;;;;;4916175;29;39030;-79
2023/05/06 01:56:49;;;;;;;36.07;26.77;;;10.20;99.90;;;;;;4903798;29;37881;-79
2023/05/06 01:59:16;;;;;;;38.40;27.00;;;10.20;99.90;;;;;;4911470;29;39060;-79
2023/05/06 02:01:42;;;;;;;37.23;27.53;;;10.20;99.90;;;;;;4899392;29;36143;-79
2023/05/06 02:04:08;;;;;;;35.10;26.07;;;10.10;99.90;;;;;;4915426;29;37420;-79
2023/05/06 02:06:34;;;;;;;34.20;25.63;;;10.10;99.90;;;;;;4917854;29;38456;-79
2023/05/06 02:09:00;;;;;;;38.23;27.67;;;10.00;99.90;;;;;;4912512;29;39275;-78
2023/05/06 02:11:26;;;;;;;40.43;28.57;;;10.00;99.90;;;;;;4907480;29;37671;-79
2023/05/06 02:13:52;;;;;;;41.70;29.23;;;10.00;99.90;;;;;;4913687;29;38049;-79
2023/05/06 02:16:19;;;;;;;35.70;28.13;;;10.00;99.90;;;;;;4899968;29;37400;-79
2023/05/06 02:18:45;;;;;;;35.93;27.07;;;10.00;99.90;;;;;;4916195;29;38071;-79
2023/05/06 02:21:11;;;;;;;36.13;26.70;;;9.90;99.90;;;;;;4913868;29;37124;-80
2023/05/06 02:23:37;;;;;;;35.07;26.97;;;9.90;99.90;;;;;;4916068;29;39194;-79
2023/05/06 02:26:04;;;;;;;33.97;26.07;;;9.90;99.90;;;;;;4912000;29;38806;-79
2023/05/06 02:28:30;;;;;;;36.13;27.63;;;9.90;99.90;;;;;;4918532;29;40737;-80
2023/05/06 02:30:57;;;;;;;39.87;28.90;;;9.90;99.90;;;;;;4903192;29;36603;-79
2023/05/06 02:33:23;;;;;;;35.87;26.23;;;9.90;99.90;;;;;;4916480;29;38433;-79
2023/05/06 02:35:50;;;;;;;35.37;26.13;;;9.80;99.90;;;;;;4916226;29;38442;-78
2023/05/06 02:38:17;;;;;;;34.73;27.23;;;9.80;99.90;;;;;;4915488;29;38173;-79
2023/05/06 02:40:43;;;;;;;37.70;27.83;;;9.80;99.90;;;;;;4903175;29;37007;-78
2023/05/06 02:43:09;;;;;;;34.40;25.97;;;9.80;99.90;;;;;;4914431;29;37363;-79
2023/05/06 02:45:36;;;;;;;39.33;26.83;;;9.90;99.90;;;;;;4896300;29;37004;-78
2023/05/06 02:48:02;;;;;;;32.03;25.00;;;10.00;99.90;;;;;;4913883;29;36966;-79
2023/05/06 02:50:28;;;;;;;35.33;27.05;;;10.10;99.90;;;;;;4912828;29;36248;-79
2023/05/06 02:52:54;;;;;;;47.65;31.35;;;10.30;99.90;;;;;;4906786;29;38784;-81
2023/05/06 02:55:23;;;;;;;38.83;27.63;;;10.30;99.90;;;;;;4912932;29;39183;-79
2023/05/06 02:57:49;;;;;;;44.17;30.40;;;10.40;99.90;;;;;;4896892;29;37275;-79
2023/05/06 03:00:16;;;;;;;30.92;25.73;;;10.40;99.90;;;;;;4898402;29;36810;-79
2023/05/06 03:02:42;;;;;;;38.03;29.52;;;10.50;99.90;;;;;;4911160;29;38845;-80
2023/05/06 03:05:08;;;;;;;42.47;29.25;;;10.50;99.90;;;;;;4897983;29;38555;-79
2023/05/06 03:07:35;;;;;;;43.10;31.77;;;10.60;99.90;;;;;;4919696;29;37853;-79
2023/05/06 03:10:02;;;;;;;39.35;29.25;;;10.60;99.90;;;;;;4897220;29;37307;-79
2023/05/06 03:12:28;;;;;;;36.88;28.67;;;10.70;99.90;;;;;;4914338;29;38414;-79
2023/05/06 03:14:54;;;;;;;32.53;25.85;;;10.80;99.90;;;;;;4897523;29;37256;-78
2023/05/06 03:17:20;;;;;;;34.47;24.48;;;10.80;99.90;;;;;;4899317;29;38388;-79
2023/05/06 03:19:49;;;;;;;35.13;26.58;;;10.80;99.90;;;;;;4895660;29;35973;-78
2023/05/06 03:22:15;;;;;;;34.83;27.02;;;10.70;99.90;;;;;;4899215;29;37669;-79
2023/05/06 03:24:41;;;;;;;31.92;25.40;;;10.80;99.90;;;;;;4916101;29;38628;-79
2023/05/06 03:27:07;;;;;;;41.70;29.83;;;10.80;99.90;;;;;;4917435;29;38898;-79
2023/05/06 03:29:33;;;;;;;36.55;28.27;;;10.80;99.90;;;;;;4915515;29;37600;-79
2023/05/06 03:32:03;;;;;;;35.20;26.40;;;10.90;99.90;;;;;;4916444;29;38526;-81
2023/05/06 03:34:29;;;;;;;36.63;28.42;;;10.90;99.90;;;;;;4916175;29;48627;-79
2023/05/06 03:36:56;;;;;;;38.30;28.02;;;10.90;99.90;;;;;;4903182;29;37487;-79
2023/05/06 03:39:22;;;;;;;33.95;26.83;;;11.00;99.90;;;;;;4924995;29;36524;-79
2023/05/06 03:41:48;;;;;;;38.97;28.48;;;11.00;99.90;;;;;;4915919;29;37699;-77
2023/05/06 03:44:15;;;;;;;29.38;24.20;;;11.10;99.90;;;;;;4922063;29;38028;-78
2023/05/06 03:46:41;;;;;;;36.97;27.10;;;11.10;99.90;;;;;;4901374;29;37803;-79
2023/05/06 03:49:09;;;;;;;38.83;26.30;;;11.20;99.90;;;;;;4910894;29;37327;-79
2023/05/06 03:51:35;;;;;;;52.90;32.45;;;11.30;99.90;;;;;;4897562;29;37928;-79
2023/05/06 03:54:02;;;;;;;48.20;31.20;;;11.50;99.90;;;;;;4899720;29;36040;-79
2023/05/06 03:56:28;;;;;;;37.70;27.40;;;11.60;99.90;;;;;;4912011;29;48832;-79
2023/05/06 03:58:54;;;;;;;35.63;25.98;;;11.60;99.90;;;;;;4905129;29;36529;-78
2023/05/06 04:01:20;;;;;;;36.63;26.45;;;11.60;99.90;;;;;;4909058;29;38866;-78
2023/05/06 04:03:47;;;;;;;45.75;29.42;;;11.60;99.90;;;;;;4897249;29;37249;-79
2023/05/06 04:06:13;;;;;;;48.20;31.80;;;11.70;99.90;;;;;;4892980;29;38392;-82
2023/05/06 04:08:39;;;;;;;40.05;28.35;;;11.70;99.90;;;;;;4914206;29;37653;-78
2023/05/06 04:11:06;;;;;;;35.70;27.75;;;11.70;99.90;;;;;;4908057;29;38464;-79
2023/05/06 04:13:33;;;;;;;40.33;28.48;;;11.80;99.90;;;;;;4915395;29;38532;-79
2023/05/06 04:16:01;;;;;;;41.28;28.23;;;11.80;99.90;;;;;;4915945;29;38036;-80
2023/05/06 04:18:27;;;;;;;41.75;29.83;;;11.80;99.90;;;;;;4913760;29;48507;-81
2023/05/06 04:20:53;;;;;;;34.95;27.02;;;11.80;99.90;;;;;;4896506;29;39462;-82
2023/05/06 04:23:20;;;;;;;42.05;30.13;;;11.80;99.90;;;;;;4900822;29;38353;-79
2023/05/06 04:25:49;;;;;;;40.70;27.63;;;11.90;99.90;;;;;;4913940;29;37477;-79
2023/05/06 04:28:16;;;;;;;41.33;28.20;;;11.90;99.90;;;;;;4906397;29;37376;-79
2023/05/06 04:30:43;;;;;;;36.72;26.27;;;11.90;99.90;;;;;;4899176;29;39487;-80
2023/05/06 04:33:09;;;;;;;37.95;26.85;;;12.00;99.90;;;;;;4914727;29;38124;-79
2023/05/06 04:35:36;;;;;;;32.88;24.90;;;12.00;99.90;;;;;;4925553;29;39279;-79
2023/05/06 04:38:02;;;;;;;37.42;26.58;;;11.90;99.90;;;;;;4913091;29;37688;-79
2023/05/06 04:40:29;;;;;;;30.45;24.00;;;11.90;99.90;;;;;;4914467;29;38642;-79
2023/05/06 04:42:55;;;;;;;34.63;23.05;;;11.90;99.90;;;;;;4915546;29;38578;-81
2023/05/06 04:45:23;;;;;;;28.25;22.23;;;11.90;99.90;;;;;;4898302;29;38577;-81
2023/05/06 04:47:49;;;;;;;34.95;23.67;;;11.80;99.90;;;;;;4911027;29;36625;-80
2023/05/06 04:50:15;;;;;;;34.10;26.00;;;11.80;99.90;;;;;;4912081;29;39759;-81
2023/05/06 04:52:41;;;;;;;30.20;24.30;;;11.90;99.90;;;;;;4901574;29;37835;-81
2023/05/06 04:55:08;;;;;;;38.65;27.52;;;11.90;99.90;;;;;;4910369;29;38337;-81
2023/05/06 04:57:34;;;;;;;34.75;25.30;;;11.90;99.90;;;;;;4905757;28;36164;-80
2023/05/06 05:00:00;;;;;;;28.75;23.83;;;12.00;99.90;;;;;;4910125;29;39534;-80
2023/05/06 05:02:26;;;;;;;31.35;23.75;;;12.00;99.90;;;;;;4909475;29;38379;-80
2023/05/06 05:04:52;;;;;;;33.15;23.45;;;12.10;99.90;;;;;;4912496;29;37572;-82
2023/05/06 05:07:18;;;;;;;33.10;24.70;;;12.10;99.90;;;;;;4890757;29;36008;-80
2023/05/06 05:09:44;;;;;;;32.08;25.27;;;12.10;99.90;;;;;;4898052;29;37782;-80
2023/05/06 05:12:10;;;;;;;32.22;24.70;;;12.10;99.90;;;;;;4912722;29;37428;-81
2023/05/06 05:14:36;;;;;;;32.83;22.83;;;12.20;99.90;;;;;;4914670;29;37157;-80
2023/05/06 05:17:02;;;;;;;30.63;24.27;;;12.20;99.90;;;;;;4914448;29;37914;-81
2023/05/06 05:19:28;;;;;;;32.10;23.63;;;12.20;99.90;;;;;;4906903;29;38119;-80
2023/05/06 05:21:54;;;;;;;28.83;23.35;;;12.30;99.90;;;;;;4914089;29;38648;-80
2023/05/06 05:24:21;;;;;;;28.33;23.08;;;12.40;99.90;;;;;;4918456;29;37273;-81
2023/05/06 05:26:47;;;;;;;28.15;22.20;;;12.40;99.90;;;;;;4913682;29;38954;-81
2023/05/06 05:29:13;;;;;;;31.15;23.27;;;12.50;99.90;;;;;;4909761;29;39242;-81
2023/05/06 05:31:39;;;;;;;32.88;25.70;;;12.60;99.90;;;;;;4899184;29;39035;-81
2023/05/06 05:34:05;;;;;;;26.20;21.70;;;12.70;99.90;;;;;;4915378;29;38793;-81
2023/05/06 05:36:32;;;;;;;32.90;25.05;;;12.70;99.90;;;;;;4921916;29;36347;-81
2023/05/06 05:38:58;;;;;;;27.33;22.70;;;12.90;99.90;;;;;;4922022;29;37493;-81
2023/05/06 05:41:25;;;;;;;27.48;22.23;;;12.90;99.90;;;;;;4919973;29;39197;-81
2023/05/06 05:43:51;;;;;;;28.25;21.55;;;12.90;99.90;;;;;;4926591;29;37336;-82
2023/05/06 05:46:17;;;;;;;29.88;22.58;;;13.00;99.90;;;;;;4926511;29;37603;-81
2023/05/06 05:48:43;;;;;;;32.03;23.35;;;13.00;99.90;;;;;;4915047;29;38497;-80
2023/05/06 05:51:10;;;;;;;29.35;23.23;;;13.00;99.90;;;;;;4915689;29;37637;-81
2023/05/06 05:53:36;;;;;;;32.88;25.40;;;13.00;99.90;;;;;;4923112;29;37026;-81
2023/05/06 05:56:02;;;;;;;29.60;21.33;;;13.10;99.90;;;;;;4915199;29;38171;-80
2023/05/06 05:58:28;;;;;;;31.27;23.92;;;13.20;99.90;;;;;;4916449;29;37727;-81
2023/05/06 06:00:54;;;;;;;36.92;23.30;;;13.10;99.90;;;;;;4913036;29;38119;-81
2023/05/06 06:03:20;;;;;;;26.38;20.02;;;13.00;99.90;;;;;;4915560;29;38967;-79
2023/05/06 06:05:48;;;;;;;23.20;18.42;;;13.00;99.90;;;;;;4918809;29;37958;-81
2023/05/06 06:08:17;;;;;;;25.00;19.40;;;13.10;99.90;;;;;;4903205;29;38847;-81
2023/05/06 06:10:43;;;;;;;29.23;20.90;;;13.10;99.90;;;;;;4921394;29;37423;-82
2023/05/06 06:13:09;;;;;;;28.00;18.45;;;13.10;99.90;;;;;;4915229;29;39031;-81
2023/05/06 06:15:35;;;;;;;23.98;18.90;;;13.10;99.90;;;;;;4906462;29;36375;-82
2023/05/06 06:18:01;;;;;;;23.05;18.58;;;13.20;99.90;;;;;;4928655;29;38602;-81
2023/05/06 06:20:27;;;;;;;24.27;18.50;;;13.30;99.90;;;;;;4914182;29;47301;-83
2023/05/06 06:22:53;;;;;;;25.52;18.60;;;13.40;99.90;;;;;;4918430;29;37155;-83
2023/05/06 06:25:20;;;;;;;24.17;18.88;;;13.40;99.90;;;;;;4926930;29;37839;-83
2023/05/06 06:27:48;;;;;;;26.15;19.13;;;13.50;99.90;;;;;;4918127;29;38456;-82
2023/05/06 06:30:14;;;;;;;24.08;18.50;;;13.50;99.90;;;;;;4920595;29;38629;-82
2023/05/06 06:32:51;;;;;;;22.00;18.35;;;13.60;99.90;;;;;;4936224;28;37403;-82
2023/05/06 06:35:19;;;;;;;25.48;17.38;;;13.60;99.90;;;;;;4921439;29;36558;-82
2023/05/06 06:37:45;;;;;;;21.95;16.60;;;13.50;99.90;;;;;;4916654;29;38928;-82
2023/05/06 06:40:12;;;;;;;23.73;17.23;;;13.60;99.90;;;;;;4920731;29;36924;-83
2023/05/06 06:42:38;;;;;;;20.58;16.45;;;13.60;99.90;;;;;;4938625;29;38117;-82
2023/05/06 06:45:06;;;;;;;23.73;16.75;;;13.70;99.90;;;;;;4913231;29;37697;-81
2023/05/06 06:47:34;;;;;;;21.80;16.73;;;13.70;99.90;;;;;;4932855;29;38335;-82
2023/05/06 06:50:00;;;;;;;22.08;16.58;;;13.70;99.90;;;;;;4939378;29;39704;-83
2023/05/06 06:52:27;;;;;;;22.27;16.65;;;13.90;99.90;;;;;;4924389;29;37446;-82
2023/05/06 06:54:53;;;;;;;18.92;16.60;;;13.90;99.90;;;;;;4926687;29;37147;-84
2023/05/06 06:57:21;;;;;;;21.83;16.58;;;14.00;99.90;;;;;;4913554;29;37101;-82
2023/05/06 06:59:49;;;;;;;20.50;15.18;;;14.10;99.90;;;;;;4912503;29;38575;-81
2023/05/06 07:02:15;;;;;;;20.95;14.30;;;14.30;99.90;;;;;;4907188;29;38027;-81
2023/05/06 07:04:41;;;;;;;16.70;14.30;;;14.50;99.90;;;;;;4911104;29;38168;-82
2023/05/06 07:07:07;;;;;;;17.02;14.57;;;14.50;99.90;;;;;;4921710;29;39900;-81
2023/05/06 07:09:33;;;;;;;17.95;13.50;;;14.50;99.90;;;;;;4911423;29;38238;-79
2023/05/06 07:12:10;;;;;;;16.45;14.57;;;14.60;99.90;;;;;;4922531;29;37292;-83
2023/05/06 07:14:38;;;;;;;16.90;13.77;;;14.50;99.90;;;;;;4923360;29;47319;-84
2023/05/06 07:17:04;;;;;;;18.88;14.15;;;14.60;99.90;;;;;;4907398;29;37870;-80
2023/05/06 07:19:30;;;;;;;19.20;14.95;;;14.60;99.90;;;;;;4899742;29;39418;-79
2023/05/06 07:21:56;;;;;;;15.25;13.63;;;14.50;99.90;;;;;;4896966;29;39129;-81
2023/05/06 07:24:23;;;;;;;16.92;13.02;;;14.60;99.90;;;;;;4893978;29;36737;-82
2023/05/06 07:26:49;;;;;;;19.20;14.25;;;14.90;99.90;;;;;;4892450;29;38843;-81
2023/05/06 07:29:15;;;;;;;16.52;13.27;;;14.90;99.90;;;;;;4879194;29;37060;-82
2023/05/06 07:31:41;;;;;;;20.60;13.60;;;14.90;99.90;;;;;;4874063;29;36956;-79
2023/05/06 07:34:07;;;;;;;15.65;13.60;;;15.00;99.90;;;;;;4889856;29;35233;-80
2023/05/06 07:36:39;;;;;;;19.08;13.10;;;15.00;99.90;;;;;;4893203;29;38539;-80
2023/05/06 07:39:09;;;;;;;20.05;13.75;;;15.20;99.90;;;;;;4887843;29;37887;-80
2023/05/06 07:41:48;;;;;;;18.98;14.27;;;15.30;99.90;;;;;;4873275;29;37793;-81
2023/05/06 07:44:14;;;;;;;15.60;13.27;;;15.30;99.90;;;;;;4889667;29;36638;-80
2023/05/06 07:46:40;;;;;;;17.10;13.35;;;15.50;99.90;;;;;;4892914;29;38075;-82
2023/05/06 07:49:06;;;;;;;15.05;12.52;;;15.80;99.90;;;;;;4898787;29;38106;-82
2023/05/06 07:51:32;;;;;;;19.80;14.75;;;16.10;99.90;;;;;;4905010;29;36993;-82
2023/05/06 07:53:58;;;;;;;20.55;14.30;;;15.90;99.90;;;;;;4889345;29;36261;-81
2023/05/06 07:56:24;;;;;;;19.55;14.40;;;16.00;99.90;;;;;;4900737;29;37482;-80
2023/05/06 07:58:50;;;;;;;18.98;13.05;;;16.20;99.90;;;;;;4906711;29;38097;-82
2023/05/06 08:01:16;;;;;;;18.52;13.65;;;16.40;99.90;;;;;;4900027;29;37250;-82
2023/05/06 08:03:43;;;;;;;13.88;12.00;;;16.70;99.90;;;;;;4903208;29;36229;-82
2023/05/06 08:06:09;;;;;;;16.33;12.57;;;16.80;99.90;;;;;;4899441;29;39273;-82
2023/05/06 08:08:35;;;;;;;22.10;13.75;;;17.00;99.90;;;;;;4872086;29;37492;-83
2023/05/06 08:11:02;;;;;;;21.25;13.52;;;17.00;99.90;;;;;;4879636;29;38558;-81
2023/05/06 08:13:29;;;;;;;19.48;12.48;;;16.70;99.90;;;;;;4864084;29;47192;-83
2023/05/06 08:15:55;;;;;;;21.48;14.68;;;16.70;99.90;;;;;;4897347;29;37514;-81
2023/05/06 08:18:21;;;;;;;16.75;12.77;;;16.90;99.90;;;;;;4893152;29;38488;-84
2023/05/06 08:20:47;;;;;;;19.55;13.93;;;16.80;99.90;;;;;;4865951;29;38356;-83
2023/05/06 08:23:13;;;;;;;18.58;13.40;;;17.10;99.90;;;;;;4863218;29;37136;-83
2023/05/06 08:25:39;;;;;;;22.48;14.75;;;17.20;99.90;;;;;;4862173;29;38138;-84
2023/05/06 08:28:05;;;;;;;16.75;13.23;;;17.50;99.90;;;;;;4884338;29;38879;-80
2023/05/06 08:30:32;;;;;;;19.02;14.27;;;17.20;99.90;;;;;;4896466;29;38094;-80
2023/05/06 08:32:58;;;;;;;17.42;14.15;;;17.60;99.90;;;;;;4886970;29;37296;-80
2023/05/06 08:35:24;;;;;;;23.70;15.55;;;17.80;99.90;;;;;;4908550;29;38718;-81
2023/05/06 08:37:50;;;;;;;21.25;14.73;;;17.80;99.90;;;;;;4886445;29;36983;-86
2023/05/06 08:40:21;;;;;;;26.52;15.95;;;18.10;99.90;;;;;;4885201;29;37073;-83
2023/05/06 08:42:48;;;;;;;21.02;15.77;;;18.00;99.90;;;;;;4905240;29;37709;-83
2023/05/06 08:45:16;;;;;;;25.25;17.48;;;18.00;99.90;;;;;;4901927;29;38732;-80
2023/05/06 08:47:42;;;;;;;23.85;16.88;;;17.70;99.90;;;;;;4897142;29;38290;-80
2023/05/06 08:50:09;;;;;;;27.80;16.40;;;17.90;99.90;;;;;;4899852;29;37387;-79
2023/05/06 08:52:39;;;;;;;22.52;16.23;;;18.10;99.90;;;;;;4900909;29;37709;-81
2023/05/06 08:55:06;;;;;;;25.98;17.27;;;18.10;99.90;;;;;;4894103;29;39570;-79
2023/05/06 08:57:33;;;;;;;21.90;14.90;;;18.10;99.90;;;;;;4907914;29;38298;-79
2023/05/06 09:00:00;;;;;;;19.88;13.05;;;18.10;99.90;;;;;;4909451;29;37298;-80
2023/05/06 09:02:26;;;;;;;18.00;13.02;;;18.10;99.90;;;;;;4901839;29;37414;-80
2023/05/06 09:04:53;;;;;;;20.88;13.27;;;18.80;99.90;;;;;;4904093;29;38292;-81
2023/05/06 09:07:22;;;;;;;20.48;12.18;;;19.30;99.90;;;;;;4889403;29;38741;-80
2023/05/06 09:09:49;;;;;;;20.17;12.57;;;19.10;99.90;;;;;;4900624;29;38178;-81
2023/05/06 09:12:15;;;;;;;16.80;10.82;;;18.60;99.90;;;;;;4895957;29;38461;-81
2023/05/06 09:14:42;;;;;;;17.17;9.15;;;18.70;99.90;;;;;;4905274;29;38458;-79
2023/05/06 09:17:26;;;;;;;12.98;7.93;;;18.80;99.90;;;;;;4906087;29;38242;-81
2023/05/06 09:19:55;;;;;;;15.02;8.18;;;18.80;99.90;;;;;;4886915;29;36978;-79
2023/05/06 09:22:23;;;;;;;17.17;8.48;;;18.90;99.90;;;;;;4870230;29;37030;-79
2023/05/06 09:24:56;;;;;;;17.95;8.80;;;19.20;99.90;;;;;;4885499;29;37645;-83
2023/05/06 09:27:30;;;;;;;12.45;7.68;;;19.60;99.90;;;;;;4890948;29;38903;-81
2023/05/06 09:30:04;;;;;;;17.00;7.68;;;19.30;99.90;;;;;;4885738;29;37190;-80
2023/05/06 09:32:31;;;;;;;15.43;7.75;;;19.70;99.90;;;;;;4891783;29;36334;-81
2023/05/06 09:34:58;;;;;;;12.32;7.10;;;20.30;99.90;;;;;;4912186;29;39301;-80
2023/05/06 09:37:27;;;;;;;14.93;7.88;;;20.40;99.90;;;;;;4906736;29;38865;-79
2023/05/06 09:39:56;;;;;;;16.08;8.43;;;20.10;99.90;;;;;;4892819;29;37924;-80
2023/05/06 09:42:27;;;;;;;14.23;9.13;;;19.90;99.90;;;;;;4885140;29;36117;-81
2023/05/06 09:44:55;;;;;;;14.27;8.35;;;19.60;99.90;;;;;;4903603;29;38033;-82
2023/05/06 09:47:23;;;;;;;12.02;7.07;;;19.40;99.90;;;;;;4896903;29;39505;-79
2023/05/06 09:49:49;;;;;;;14.27;7.97;;;20.10;99.90;;;;;;4912940;29;38161;-79
2023/05/06 09:52:18;;;;;;;13.60;7.75;;;20.90;99.90;;;;;;4887606;29;37114;-79
2023/05/06 09:54:45;;;;;;;12.10;7.78;;;20.60;99.90;;;;;;4904459;29;39158;-79
2023/05/06 09:57:14;;;;;;;11.30;7.10;;;20.00;99.90;;;;;;4878004;29;38363;-79
2023/05/06 09:59:42;;;;;;;11.90;7.70;;;19.90;99.90;;;;;;4897991;29;38221;-80
2023/05/06 10:02:09;;;;;;;12.85;7.75;;;20.50;99.90;;;;;;4899031;29;37229;-79
2023/05/06 10:04:37;;;;;;;11.02;7.25;;;20.30;99.90;;;;;;4884617;29;40490;-79
2023/05/06 10:07:05;;;;;;;11.80;7.22;;;19.80;99.90;;;;;;4910314;29;37392;-79
2023/05/06 10:09:32;;;;;;;10.77;7.60;;;19.60;99.90;;;;;;4881859;29;38387;-79
2023/05/06 10:11:59;;;;;;;13.52;6.90;;;19.40;99.90;;;;;;4903124;29;38174;-79
2023/05/06 10:14:25;;;;;;;9.38;6.93;;;19.50;99.90;;;;;;4906928;29;39498;-81
2023/05/06 10:16:52;;;;;;;12.02;7.53;;;19.90;99.90;;;;;;4908240;29;39965;-80
2023/05/06 10:19:23;;;;;;;11.77;7.32;;;20.00;99.90;;;;;;4897683;29;38755;-80
2023/05/06 10:21:56;;;;;;;12.67;9.10;;;19.80;99.90;;;;;;4911261;29;37489;-81
2023/05/06 10:24:31;;;;;;;11.75;8.32;;;19.70;99.90;;;;;;4885587;29;37513;-81
2023/05/06 10:26:58;;;;;;;11.93;7.95;;;20.30;99.90;;;;;;4909405;29;35449;-78
2023/05/06 10:29:25;;;;;;;10.68;7.72;;;20.80;99.90;;;;;;4903443;29;37854;-78
2023/05/06 10:31:58;;;;;;;12.73;8.32;;;21.30;99.90;;;;;;4897011;29;37246;-78
2023/05/06 10:34:26;;;;;;;11.07;7.47;;;21.30;99.90;;;;;;4886713;29;37646;-79
2023/05/06 10:36:56;;;;;;;9.98;6.90;;;21.50;99.90;;;;;;4901919;29;41332;-81
2023/05/06 10:39:23;;;;;;;9.32;6.78;;;21.20;99.90;;;;;;4891735;29;37031;-79
2023/05/06 10:41:49;;;;;;;13.13;7.47;;;21.00;99.90;;;;;;4898411;29;37725;-78
2023/05/06 10:44:15;;;;;;;12.23;9.13;;;20.90;99.90;;;;;;4901949;29;39370;-78
2023/05/06 10:46:58;;;;;;;12.73;9.30;;;20.10;99.90;;;;;;4882206;29;38950;-78
2023/05/06 10:49:25;;;;;;;10.73;8.68;;;19.80;99.90;;;;;;4891924;29;38092;-78
2023/05/06 10:52:13;;;;;;;12.00;8.48;;;20.10;99.90;;;;;;4903515;29;37420;-78
2023/05/06 10:54:50;;;;;;;12.90;8.82;;;20.50;99.90;;;;;;4884306;29;47449;-79
2023/05/06 10:57:16;;;;;;;12.35;9.77;;;20.40;99.90;;;;;;4885736;29;35997;-79
2023/05/06 10:59:47;;;;;;;10.65;8.35;;;20.20;99.90;;;;;;4907341;29;39031;-81
2023/05/06 11:02:17;;;;;;;8.30;6.93;;;20.40;99.90;;;;;;4902249;29;36387;-81
2023/05/06 11:04:50;;;;;;;10.15;5.10;;;20.20;99.90;;;;;;4896863;29;39653;-79
2023/05/06 11:07:23;;;;;;;7.97;5.32;;;20.40;99.90;;;;;;4901495;29;38551;-80
2023/05/06 11:09:57;;;;;;;9.02;5.32;;;20.40;99.90;;;;;;4884528;29;38295;-79
2023/05/06 11:12:47;;;;;;;11.05;5.50;;;20.10;99.90;;;;;;4894692;29;37086;-80
2023/05/06 11:15:20;;;;;;;7.53;5.32;;;20.10;99.90;;;;;;4899982;29;38540;-86
2023/05/06 11:17:46;;;;;;;8.60;5.50;;;20.30;99.90;;;;;;4901199;29;38973;-82
2023/05/06 11:20:24;;;;;;;13.32;6.35;;;20.20;99.90;;;;;;4896585;29;37001;-79
2023/05/06 11:22:51;;;;;;;8.30;6.03;;;20.00;99.90;;;;;;4904053;29;37217;-79
2023/05/06 11:25:36;;;;;;;9.07;5.80;;;19.80;99.90;;;;;;4892504;29;38533;-78
2023/05/06 11:28:07;;;;;;;9.18;5.85;;;20.00;99.90;;;;;;4904995;29;38519;-82
2023/05/06 11:30:33;;;;;;;8.80;5.45;;;20.20;99.90;;;;;;4906854;29;38640;-83
2023/05/06 11:33:03;;;;;;;15.68;6.68;;;20.20;99.90;;;;;;4898778;29;35917;-83
2023/05/06 11:35:36;;;;;;;13.10;6.28;;;20.50;99.90;;;;;;4903331;29;48401;-82
2023/05/06 11:38:03;;;;;;;10.57;6.30;;;20.30;99.90;;;;;;4902019;29;38868;-82
2023/05/06 11:40:30;;;;;;;8.73;6.30;;;20.40;99.90;;;;;;4899866;28;40354;-82
2023/05/06 11:43:15;;;;;;;8.85;6.22;;;20.30;99.90;;;;;;4894448;29;37181;-83
2023/05/06 11:45:46;;;;;;;8.60;6.03;;;20.50;99.90;;;;;;4904884;29;49154;-83
2023/05/06 11:48:16;;;;;;;9.55;6.80;;;20.70;99.90;;;;;;4903880;29;38214;-83
2023/05/06 11:50:46;;;;;;;9.75;7.40;;;20.40;99.90;;;;;;4903415;29;37197;-82
2023/05/06 11:53:15;;;;;;;8.50;6.15;;;20.70;99.90;;;;;;4904957;29;37303;-82
2023/05/06 11:55:43;;;;;;;9.57;6.90;;;20.50;99.90;;;;;;4887715;29;39362;-82
2023/05/06 11:58:17;;;;;;;8.45;5.78;;;20.30;99.90;;;;;;4904172;29;36648;-82
2023/05/06 12:00:53;;;;;;;10.10;6.93;;;20.70;99.90;;;;;;4908077;29;37944;-82
2023/05/06 12:03:20;;;;;;;11.45;6.25;;;21.20;99.90;;;;;;4894322;29;36523;-81
2023/05/06 12:05:48;;;;;;;9.02;6.05;;;20.80;99.90;;;;;;4891038;29;39097;-81
2023/05/06 12:08:22;;;;;;;8.30;5.00;;;20.80;99.90;;;;;;4903827;29;39182;-81
2023/05/06 12:10:50;;;;;;;8.82;5.20;;;21.10;99.90;;;;;;4893569;29;38487;-80
2023/05/06 12:13:17;;;;;;;9.95;5.15;;;21.60;99.90;;;;;;4882665;29;36353;-77
2023/05/06 12:15:44;;;;;;;8.38;5.22;;;21.70;99.90;;;;;;4907396;29;38175;-76
2023/05/06 12:18:11;;;;;;;6.35;4.90;;;21.10;99.90;;;;;;4898216;29;38720;-77
2023/05/06 12:20:38;;;;;;;7.43;4.45;;;21.10;99.90;;;;;;4909028;29;36918;-77
2023/05/06 12:23:11;;;;;;;7.07;4.55;;;21.20;99.90;;;;;;4903868;29;36091;-79
2023/05/06 12:25:38;;;;;;;4.18;3.58;;;21.10;99.90;;;;;;4906234;29;38662;-78
2023/05/06 12:28:18;;;;;;;8.23;4.43;;;20.90;99.90;;;;;;4907194;29;38324;-79
2023/05/06 12:30:45;;;;;;;5.57;3.75;;;21.10;99.90;;;;;;4885143;29;37307;-79
2023/05/06 12:33:11;;;;;;;5.65;4.18;;;21.00;99.90;;;;;;4892351;29;37944;-80
2023/05/06 12:35:39;;;;;;;5.53;3.70;;;20.70;99.90;;;;;;4908603;29;38142;-79
2023/05/06 12:38:11;;;;;;;5.43;3.50;;;21.10;99.90;;;;;;4886267;29;37523;-78
2023/05/06 12:40:37;;;;;;;7.93;4.13;;;21.50;99.90;;;;;;4911126;29;39322;-78
2023/05/06 12:43:03;;;;;;;9.75;5.25;;;21.90;99.90;;;;;;4900174;29;37525;-83
2023/05/06 12:45:30;;;;;;;6.07;4.82;;;21.60;99.90;;;;;;4905688;29;38726;-79
2023/05/06 12:47:58;;;;;;;6.05;4.88;;;21.10;99.90;;;;;;4896760;29;36503;-80
2023/05/06 12:50:43;;;;;;;6.13;4.70;;;21.10;99.90;;;;;;4887726;29;37812;-80
2023/05/06 12:53:12;;;;;;;7.78;5.55;;;21.10;99.90;;;;;;4909812;29;36469;-79
2023/05/06 12:55:40;;;;;;;8.07;4.97;;;21.20;99.90;;;;;;4895010;29;39327;-79
2023/05/06 12:58:17;;;;;;;7.75;5.97;;;21.10;99.90;;;;;;4908437;29;39439;-78
2023/05/06 13:00:43;;;;;;;10.20;6.13;;;21.10;99.90;;;;;;4894342;29;38171;-80
2023/05/06 13:03:10;;;;;;;9.43;5.45;;;21.50;99.90;;;;;;4891419;29;36494;-79
2023/05/06 13:05:36;;;;;;;8.15;5.22;;;21.40;99.90;;;;;;4906804;29;37688;-79
2023/05/06 13:08:03;;;;;;;8.40;3.90;;;21.10;99.90;;;;;;4907342;29;39802;-79
2023/05/06 13:10:29;;;;;;;9.38;4.10;;;21.00;99.90;;;;;;4900844;29;38359;-79
2023/05/06 13:12:56;;;;;;;7.18;4.93;;;21.20;99.90;;;;;;4910865;29;37411;-79
2023/05/06 13:15:23;;;;;;;4.55;3.70;;;21.30;99.90;;;;;;4911111;29;38264;-78
2023/05/06 13:17:49;;;;;;;8.00;3.22;;;21.00;99.90;;;;;;4911767;29;39660;-79
2023/05/06 13:20:16;;;;;;;11.05;3.13;;;21.10;99.90;;;;;;4919562;29;38604;-80
2023/05/06 13:22:42;;;;;;;4.72;2.47;;;21.80;99.90;;;;;;4909560;29;38060;-77
2023/05/06 13:25:10;;;;;;;5.75;2.20;;;22.40;99.90;;;;;;4910362;29;38598;-77
2023/05/06 13:27:36;;;;;;;3.28;1.67;;;22.40;99.90;;;;;;4894371;29;37959;-78
2023/05/06 13:30:03;;;;;;;5.00;2.28;;;22.80;99.90;;;;;;4910338;29;37724;-78
2023/05/06 13:32:29;;;;;;;4.55;1.90;;;22.40;99.90;;;;;;4896628;29;37987;-78
2023/05/06 13:34:56;;;;;;;4.15;1.98;;;22.10;99.90;;;;;;4895019;29;37623;-78
2023/05/06 13:37:22;;;;;;;3.63;2.20;;;22.30;99.90;;;;;;4892810;29;38845;-78
2023/05/06 13:39:48;;;;;;;4.50;2.42;;;22.50;99.90;;;;;;4912235;29;38807;-78